aviador You're here:

MMEP Decoded Metar

TEPIC in MEXICO
Report Time2017-03-23 01:42:00
UTC Time2017-03-23 02:19:04
Flight Rules vfr VFR
Wind020° at 06 kt
W.Decomp.*RWY 02: 5.9 kt HW 0.8 kt LCW
W.Rank020° ranks 6
Current wind is above 020° avg. (5.4)
Visibility9999 m
Phenomena:N/A
Clouds:Scattered 250 Hf
Expected CloudBase > 2,400 ft AGL from Temp-Dew spread
CeilingNone
Temp22°C (ISA +13)
Dew Point16°C (69% RH)
AAT21.8°C
QNH1017 hPa
Density Alt4,649 ft
Elevation3,025 ft
Report Wrong Elevation
Raw Report
MMEP 230142Z 02006KT 12SM SCT250 22/16 A3002 RMK 8/001=

Extra information for MMEP:More info

Metar Taf Metar & Taf Last 4 Metars F.Rules Stats Wind Profile Meteogram Temp Stats Airport Information Weather charts Add Link Nearby VenuesMetar ALERT Operation Metar Decoded Social comments